Terminal Aerodrome Forecast
Issued by NWS

Home | Current Version | Previous Version | Text Only | Print | Product List | Glossary On
Versions: 1 2 3 4 5 6 7 8 9 10 11 12 13 14 15
876
FTUS42 KMLB 221123
TAFLEE
TAF
KLEE 221123Z 2212/2312 09004KT P6SM FEW015
     FM221500 10006KT P6SM FEW030
     FM230000 08005KT P6SM FEW040
     FM230600 VRB03KT P6SM FEW020 BKN250=

USA.gov is the U.S. government's official web portal to all federal, state and local government web resources and services.